sensor_id;sensor_type;location;lat;lon;timestamp;P1;durP1;ratioP1;P2;durP2;ratioP2
6195;SDS011;3131;42.630;23.382;2022-08-01T00:02:04;2.67;;;2.47;;
6195;SDS011;3131;42.630;23.382;2022-08-01T00:04:32;3.27;;;2.57;;
6195;SDS011;3131;42.630;23.382;2022-08-01T00:07:00;4.23;;;2.70;;
6195;SDS011;3131;42.630;23.382;2022-08-01T00:09:27;6.07;;;2.53;;
6195;SDS011;3131;42.630;23.382;2022-08-01T00:11:55;3.20;;;2.00;;
6195;SDS011;3131;42.630;23.382;2022-08-01T00:14:23;3.90;;;2.30;;
6195;SDS011;3131;42.630;23.382;2022-08-01T00:16:50;2.87;;;2.17;;
6195;SDS011;3131;42.630;23.382;2022-08-01T00:19:18;3.57;;;2.27;;
6195;SDS011;3131;42.630;23.382;2022-08-01T00:21:45;3.30;;;2.00;;
6195;SDS011;3131;42.630;23.382;2022-08-01T00:24:13;2.53;;;2.20;;
6195;SDS011;3131;42.630;23.382;2022-08-01T00:26:40;2.83;;;2.20;;
6195;SDS011;3131;42.630;23.382;2022-08-01T00:29:08;2.30;;;2.10;;
6195;SDS011;3131;42.630;23.382;2022-08-01T00:31:36;2.20;;;2.00;;
6195;SDS011;3131;42.630;23.382;2022-08-01T00:34:03;3.97;;;2.10;;
6195;SDS011;3131;42.630;23.382;2022-08-01T00:36:31;8.50;;;2.50;;
6195;SDS011;3131;42.630;23.382;2022-08-01T00:38:58;10.63;;;4.97;;
6195;SDS011;3131;42.630;23.382;2022-08-01T00:41:26;9.50;;;5.40;;
6195;SDS011;3131;42.630;23.382;2022-08-01T00:43:53;8.07;;;5.90;;
6195;SDS011;3131;42.630;23.382;2022-08-01T00:46:21;8.90;;;6.53;;
6195;SDS011;3131;42.630;23.382;2022-08-01T00:48:49;7.60;;;6.83;;
6195;SDS011;3131;42.630;23.382;2022-08-01T00:51:16;8.07;;;7.10;;
6195;SDS011;3131;42.630;23.382;2022-08-01T00:53:44;10.30;;;7.10;;
6195;SDS011;3131;42.630;23.382;2022-08-01T00:56:12;9.30;;;7.67;;
6195;SDS011;3131;42.630;23.382;2022-08-01T00:58:40;9.00;;;7.43;;
6195;SDS011;3131;42.630;23.382;2022-08-01T01:01:08;9.40;;;8.17;;
6195;SDS011;3131;42.630;23.382;2022-08-01T01:03:36;10.47;;;7.50;;
6195;SDS011;3131;42.630;23.382;2022-08-01T01:06:10;10.30;;;8.60;;
6195;SDS011;3131;42.630;23.382;2022-08-01T01:08:39;9.47;;;7.80;;
6195;SDS011;3131;42.630;23.382;2022-08-01T01:11:09;14.97;;;11.30;;
6195;SDS011;3131;42.630;23.382;2022-08-01T01:13:37;7.87;;;6.80;;
6195;SDS011;3131;42.630;23.382;2022-08-01T01:16:06;10.10;;;6.40;;
6195;SDS011;3131;42.630;23.382;2022-08-01T01:18:35;8.47;;;6.83;;
6195;SDS011;3131;42.630;23.382;2022-08-01T01:23:42;14.03;;;7.07;;
6195;SDS011;3131;42.630;23.382;2022-08-01T01:26:13;9.23;;;7.13;;
6195;SDS011;3131;42.630;23.382;2022-08-01T01:31:08;7.90;;;6.87;;
6195;SDS011;3131;42.630;23.382;2022-08-01T01:33:38;8.17;;;6.90;;
6195;SDS011;3131;42.630;23.382;2022-08-01T01:36:08;8.97;;;7.23;;
6195;SDS011;3131;42.630;23.382;2022-08-01T01:38:36;12.30;;;7.00;;
6195;SDS011;3131;42.630;23.382;2022-08-01T01:41:06;9.03;;;6.33;;
6195;SDS011;3131;42.630;23.382;2022-08-01T01:43:34;9.97;;;6.17;;
6195;SDS011;3131;42.630;23.382;2022-08-01T01:46:02;7.47;;;5.77;;
6195;SDS011;3131;42.630;23.382;2022-08-01T01:48:31;7.33;;;6.47;;
6195;SDS011;3131;42.630;23.382;2022-08-01T01:50:59;11.27;;;6.60;;
6195;SDS011;3131;42.630;23.382;2022-08-01T01:53:28;7.93;;;6.00;;
6195;SDS011;3131;42.630;23.382;2022-08-01T01:55:56;9.17;;;6.93;;
6195;SDS011;3131;42.630;23.382;2022-08-01T01:58:24;9.07;;;6.37;;
6195;SDS011;3131;42.630;23.382;2022-08-01T02:00:53;7.30;;;6.23;;
6195;SDS011;3131;42.630;23.382;2022-08-01T02:03:22;12.70;;;8.43;;
6195;SDS011;3131;42.630;23.382;2022-08-01T02:05:51;11.63;;;6.93;;
6195;SDS011;3131;42.630;23.382;2022-08-01T02:08:20;6.77;;;5.13;;
6195;SDS011;3131;42.630;23.382;2022-08-01T02:10:49;5.03;;;4.40;;
6195;SDS011;3131;42.630;23.382;2022-08-01T02:13:36;5.37;;;4.13;;
6195;SDS011;3131;42.630;23.382;2022-08-01T02:16:05;5.43;;;4.20;;
6195;SDS011;3131;42.630;23.382;2022-08-01T02:18:33;6.00;;;4.50;;
6195;SDS011;3131;42.630;23.382;2022-08-01T02:21:00;6.40;;;4.53;;
6195;SDS011;3131;42.630;23.382;2022-08-01T02:23:31;9.33;;;4.53;;
6195;SDS011;3131;42.630;23.382;2022-08-01T02:25:58;5.97;;;3.60;;
6195;SDS011;3131;42.630;23.382;2022-08-01T02:28:28;8.97;;;3.70;;
6195;SDS011;3131;42.630;23.382;2022-08-01T02:30:56;6.13;;;4.80;;
6195;SDS011;3131;42.630;23.382;2022-08-01T02:33:27;6.40;;;3.97;;
6195;SDS011;3131;42.630;23.382;2022-08-01T02:35:56;5.17;;;3.30;;
6195;SDS011;3131;42.630;23.382;2022-08-01T02:38:26;5.60;;;2.97;;
6195;SDS011;3131;42.630;23.382;2022-08-01T02:40:54;2.93;;;2.57;;
6195;SDS011;3131;42.630;23.382;2022-08-01T02:43:24;7.27;;;2.93;;
6195;SDS011;3131;42.630;23.382;2022-08-01T02:45:54;3.27;;;2.70;;
6195;SDS011;3131;42.630;23.382;2022-08-01T02:48:21;4.83;;;2.87;;
6195;SDS011;3131;42.630;23.382;2022-08-01T02:50:51;3.47;;;2.57;;
6195;SDS011;3131;42.630;23.382;2022-08-01T02:53:20;3.60;;;2.73;;
6195;SDS011;3131;42.630;23.382;2022-08-01T02:55:49;3.80;;;2.60;;
6195;SDS011;3131;42.630;23.382;2022-08-01T02:58:17;3.20;;;2.80;;
6195;SDS011;3131;42.630;23.382;2022-08-01T03:00:45;3.70;;;2.67;;
6195;SDS011;3131;42.630;23.382;2022-08-01T03:03:14;3.93;;;3.03;;
6195;SDS011;3131;42.630;23.382;2022-08-01T03:05:43;4.13;;;3.00;;
6195;SDS011;3131;42.630;23.382;2022-08-01T03:08:11;4.03;;;3.30;;
6195;SDS011;3131;42.630;23.382;2022-08-01T03:10:40;4.97;;;4.07;;
6195;SDS011;3131;42.630;23.382;2022-08-01T03:13:08;6.60;;;3.00;;
6195;SDS011;3131;42.630;23.382;2022-08-01T03:15:39;4.53;;;3.30;;
6195;SDS011;3131;42.630;23.382;2022-08-01T03:18:07;3.27;;;2.97;;
6195;SDS011;3131;42.630;23.382;2022-08-01T03:20:36;5.47;;;3.23;;
6195;SDS011;3131;42.630;23.382;2022-08-01T03:23:04;7.30;;;3.23;;
6195;SDS011;3131;42.630;23.382;2022-08-01T03:25:32;8.23;;;3.97;;
6195;SDS011;3131;42.630;23.382;2022-08-01T03:28:02;4.30;;;3.40;;
6195;SDS011;3131;42.630;23.382;2022-08-01T03:30:30;6.13;;;3.43;;
6195;SDS011;3131;42.630;23.382;2022-08-01T03:32:58;9.20;;;4.07;;
6195;SDS011;3131;42.630;23.382;2022-08-01T03:35:27;8.30;;;3.47;;
6195;SDS011;3131;42.630;23.382;2022-08-01T03:37:55;8.60;;;3.63;;
6195;SDS011;3131;42.630;23.382;2022-08-01T03:40:24;6.77;;;4.07;;
6195;SDS011;3131;42.630;23.382;2022-08-01T03:42:54;8.93;;;3.93;;
6195;SDS011;3131;42.630;23.382;2022-08-01T03:45:22;6.77;;;4.03;;
6195;SDS011;3131;42.630;23.382;2022-08-01T03:47:51;7.23;;;4.33;;
6195;SDS011;3131;42.630;23.382;2022-08-01T03:50:19;9.87;;;5.00;;
6195;SDS011;3131;42.630;23.382;2022-08-01T03:52:47;7.80;;;5.30;;
6195;SDS011;3131;42.630;23.382;2022-08-01T03:55:16;7.47;;;4.60;;
6195;SDS011;3131;42.630;23.382;2022-08-01T03:57:44;4.87;;;3.60;;
6195;SDS011;3131;42.630;23.382;2022-08-01T04:00:13;3.97;;;3.10;;
6195;SDS011;3131;42.630;23.382;2022-08-01T04:02:42;5.70;;;3.50;;
6195;SDS011;3131;42.630;23.382;2022-08-01T04:05:10;10.40;;;3.30;;
6195;SDS011;3131;42.630;23.382;2022-08-01T04:07:38;6.80;;;3.60;;
6195;SDS011;3131;42.630;23.382;2022-08-01T04:10:06;6.20;;;3.10;;
6195;SDS011;3131;42.630;23.382;2022-08-01T04:12:34;9.47;;;3.33;;
6195;SDS011;3131;42.630;23.382;2022-08-01T04:15:02;7.90;;;5.10;;
6195;SDS011;3131;42.630;23.382;2022-08-01T04:17:30;15.73;;;5.77;;
6195;SDS011;3131;42.630;23.382;2022-08-01T04:19:57;8.13;;;3.23;;
6195;SDS011;3131;42.630;23.382;2022-08-01T04:22:25;9.23;;;3.90;;
6195;SDS011;3131;42.630;23.382;2022-08-01T04:24:53;5.23;;;2.93;;
6195;SDS011;3131;42.630;23.382;2022-08-01T04:27:23;13.53;;;4.33;;
6195;SDS011;3131;42.630;23.382;2022-08-01T04:29:51;10.00;;;4.43;;
6195;SDS011;3131;42.630;23.382;2022-08-01T04:32:20;18.87;;;5.27;;
6195;SDS011;3131;42.630;23.382;2022-08-01T04:34:49;10.90;;;5.70;;
6195;SDS011;3131;42.630;23.382;2022-08-01T04:37:17;6.87;;;4.40;;
6195;SDS011;3131;42.630;23.382;2022-08-01T04:39:45;8.00;;;3.80;;
6195;SDS011;3131;42.630;23.382;2022-08-01T04:42:14;10.23;;;4.10;;
6195;SDS011;3131;42.630;23.382;2022-08-01T04:44:42;6.97;;;3.77;;
6195;SDS011;3131;42.630;23.382;2022-08-01T04:47:10;6.53;;;3.63;;
6195;SDS011;3131;42.630;23.382;2022-08-01T04:49:38;7.80;;;4.20;;
6195;SDS011;3131;42.630;23.382;2022-08-01T04:52:06;7.43;;;4.07;;
6195;SDS011;3131;42.630;23.382;2022-08-01T04:54:34;9.70;;;4.20;;
6195;SDS011;3131;42.630;23.382;2022-08-01T04:57:03;6.07;;;4.50;;
6195;SDS011;3131;42.630;23.382;2022-08-01T04:59:32;7.03;;;4.00;;
6195;SDS011;3131;42.630;23.382;2022-08-01T05:02:06;8.70;;;3.67;;
6195;SDS011;3131;42.630;23.382;2022-08-01T05:04:34;10.37;;;4.60;;
6195;SDS011;3131;42.630;23.382;2022-08-01T05:07:01;12.07;;;3.97;;
6195;SDS011;3131;42.630;23.382;2022-08-01T05:09:29;11.80;;;4.30;;
6195;SDS011;3131;42.630;23.382;2022-08-01T05:11:57;9.67;;;4.47;;
6195;SDS011;3131;42.630;23.382;2022-08-01T05:14:25;9.13;;;5.50;;
6195;SDS011;3131;42.630;23.382;2022-08-01T05:16:53;18.30;;;5.17;;
6195;SDS011;3131;42.630;23.382;2022-08-01T05:19:20;7.60;;;3.87;;
6195;SDS011;3131;42.630;23.382;2022-08-01T05:21:48;11.47;;;4.10;;
6195;SDS011;3131;42.630;23.382;2022-08-01T05:24:15;9.83;;;4.50;;
6195;SDS011;3131;42.630;23.382;2022-08-01T05:26:43;8.73;;;4.23;;
6195;SDS011;3131;42.630;23.382;2022-08-01T05:29:10;16.23;;;4.43;;
6195;SDS011;3131;42.630;23.382;2022-08-01T05:31:38;11.07;;;3.60;;
6195;SDS011;3131;42.630;23.382;2022-08-01T05:34:05;6.40;;;3.47;;
6195;SDS011;3131;42.630;23.382;2022-08-01T05:36:33;14.33;;;5.00;;
6195;SDS011;3131;42.630;23.382;2022-08-01T05:39:01;8.63;;;3.90;;
6195;SDS011;3131;42.630;23.382;2022-08-01T05:41:29;6.00;;;3.40;;
6195;SDS011;3131;42.630;23.382;2022-08-01T05:43:56;17.43;;;3.40;;
6195;SDS011;3131;42.630;23.382;2022-08-01T05:46:24;5.43;;;2.70;;
6195;SDS011;3131;42.630;23.382;2022-08-01T05:48:51;8.67;;;3.50;;
6195;SDS011;3131;42.630;23.382;2022-08-01T05:51:19;11.27;;;4.37;;
6195;SDS011;3131;42.630;23.382;2022-08-01T05:53:47;5.47;;;2.57;;
6195;SDS011;3131;42.630;23.382;2022-08-01T05:56:14;8.17;;;3.77;;
6195;SDS011;3131;42.630;23.382;2022-08-01T05:58:43;8.80;;;3.97;;
6195;SDS011;3131;42.630;23.382;2022-08-01T06:01:10;9.13;;;3.60;;
6195;SDS011;3131;42.630;23.382;2022-08-01T06:03:38;13.97;;;5.07;;
6195;SDS011;3131;42.630;23.382;2022-08-01T06:06:05;4.47;;;3.13;;
6195;SDS011;3131;42.630;23.382;2022-08-01T06:08:33;10.17;;;3.77;;
6195;SDS011;3131;42.630;23.382;2022-08-01T06:11:01;3.27;;;2.63;;
6195;SDS011;3131;42.630;23.382;2022-08-01T06:13:28;8.37;;;2.90;;
6195;SDS011;3131;42.630;23.382;2022-08-01T06:15:56;6.37;;;2.40;;
6195;SDS011;3131;42.630;23.382;2022-08-01T06:18:24;6.47;;;2.30;;
6195;SDS011;3131;42.630;23.382;2022-08-01T06:20:51;3.83;;;2.10;;
6195;SDS011;3131;42.630;23.382;2022-08-01T06:23:19;11.50;;;2.43;;
6195;SDS011;3131;42.630;23.382;2022-08-01T06:25:47;4.30;;;2.03;;
6195;SDS011;3131;42.630;23.382;2022-08-01T06:28:14;6.00;;;2.20;;
6195;SDS011;3131;42.630;23.382;2022-08-01T06:30:42;8.40;;;4.10;;
6195;SDS011;3131;42.630;23.382;2022-08-01T06:33:10;6.90;;;3.03;;
6195;SDS011;3131;42.630;23.382;2022-08-01T06:35:37;7.77;;;2.47;;
6195;SDS011;3131;42.630;23.382;2022-08-01T06:38:05;5.23;;;2.57;;
6195;SDS011;3131;42.630;23.382;2022-08-01T06:40:33;3.10;;;2.60;;
6195;SDS011;3131;42.630;23.382;2022-08-01T06:43:01;2.47;;;2.27;;
6195;SDS011;3131;42.630;23.382;2022-08-01T06:45:28;2.57;;;2.23;;
6195;SDS011;3131;42.630;23.382;2022-08-01T06:47:56;4.17;;;2.10;;
6195;SDS011;3131;42.630;23.382;2022-08-01T06:50:23;2.43;;;2.00;;
6195;SDS011;3131;42.630;23.382;2022-08-01T06:52:51;5.23;;;2.50;;
6195;SDS011;3131;42.630;23.382;2022-08-01T06:55:19;4.67;;;2.10;;
6195;SDS011;3131;42.630;23.382;2022-08-01T06:57:47;6.43;;;2.50;;
6195;SDS011;3131;42.630;23.382;2022-08-01T07:00:15;3.00;;;2.30;;
6195;SDS011;3131;42.630;23.382;2022-08-01T07:02:45;3.93;;;2.33;;
6195;SDS011;3131;42.630;23.382;2022-08-01T07:05:12;8.40;;;3.17;;
6195;SDS011;3131;42.630;23.382;2022-08-01T07:07:40;6.10;;;2.60;;
6195;SDS011;3131;42.630;23.382;2022-08-01T07:10:08;3.17;;;2.63;;
6195;SDS011;3131;42.630;23.382;2022-08-01T07:12:36;5.27;;;2.90;;
6195;SDS011;3131;42.630;23.382;2022-08-01T07:15:06;6.57;;;3.00;;
6195;SDS011;3131;42.630;23.382;2022-08-01T07:17:36;5.27;;;2.80;;
6195;SDS011;3131;42.630;23.382;2022-08-01T07:20:05;6.63;;;3.00;;
6195;SDS011;3131;42.630;23.382;2022-08-01T07:22:33;3.93;;;2.00;;
6195;SDS011;3131;42.630;23.382;2022-08-01T07:25:00;3.67;;;2.60;;
6195;SDS011;3131;42.630;23.382;2022-08-01T07:27:28;4.80;;;2.87;;
6195;SDS011;3131;42.630;23.382;2022-08-01T07:29:55;5.60;;;3.37;;
6195;SDS011;3131;42.630;23.382;2022-08-01T07:32:23;4.60;;;2.77;;
6195;SDS011;3131;42.630;23.382;2022-08-01T07:34:50;3.67;;;2.70;;
6195;SDS011;3131;42.630;23.382;2022-08-01T07:37:18;3.83;;;2.67;;
6195;SDS011;3131;42.630;23.382;2022-08-01T07:39:46;2.77;;;2.50;;
6195;SDS011;3131;42.630;23.382;2022-08-01T07:42:13;3.03;;;2.20;;
6195;SDS011;3131;42.630;23.382;2022-08-01T07:44:41;9.53;;;3.03;;
6195;SDS011;3131;42.630;23.382;2022-08-01T07:47:08;3.57;;;2.40;;
6195;SDS011;3131;42.630;23.382;2022-08-01T07:49:36;6.63;;;2.57;;
6195;SDS011;3131;42.630;23.382;2022-08-01T07:52:04;4.43;;;2.50;;
6195;SDS011;3131;42.630;23.382;2022-08-01T07:54:32;4.60;;;2.70;;
6195;SDS011;3131;42.630;23.382;2022-08-01T07:56:59;8.37;;;2.40;;
6195;SDS011;3131;42.630;23.382;2022-08-01T07:59:27;2.20;;;2.00;;
6195;SDS011;3131;42.630;23.382;2022-08-01T08:01:54;3.40;;;2.40;;
6195;SDS011;3131;42.630;23.382;2022-08-01T08:04:22;5.80;;;2.80;;
6195;SDS011;3131;42.630;23.382;2022-08-01T08:06:49;8.27;;;2.70;;
6195;SDS011;3131;42.630;23.382;2022-08-01T08:09:18;5.37;;;2.97;;
6195;SDS011;3131;42.630;23.382;2022-08-01T08:11:45;5.70;;;2.90;;
6195;SDS011;3131;42.630;23.382;2022-08-01T08:14:13;4.47;;;2.33;;
6195;SDS011;3131;42.630;23.382;2022-08-01T08:16:41;3.30;;;2.53;;
6195;SDS011;3131;42.630;23.382;2022-08-01T08:19:09;8.10;;;2.77;;
6195;SDS011;3131;42.630;23.382;2022-08-01T08:21:37;4.57;;;2.60;;
6195;SDS011;3131;42.630;23.382;2022-08-01T08:24:05;4.90;;;3.00;;
6195;SDS011;3131;42.630;23.382;2022-08-01T08:26:50;3.27;;;2.93;;
6195;SDS011;3131;42.630;23.382;2022-08-01T08:29:19;2.50;;;2.30;;
6195;SDS011;3131;42.630;23.382;2022-08-01T08:31:47;11.77;;;3.10;;
6195;SDS011;3131;42.630;23.382;2022-08-01T08:34:15;10.70;;;3.33;;
6195;SDS011;3131;42.630;23.382;2022-08-01T08:36:43;2.30;;;2.10;;
6195;SDS011;3131;42.630;23.382;2022-08-01T08:39:10;5.87;;;2.80;;
6195;SDS011;3131;42.630;23.382;2022-08-01T08:41:38;5.10;;;2.73;;
6195;SDS011;3131;42.630;23.382;2022-08-01T08:44:06;2.60;;;2.30;;
6195;SDS011;3131;42.630;23.382;2022-08-01T08:46:34;2.60;;;2.40;;
6195;SDS011;3131;42.630;23.382;2022-08-01T08:49:03;4.43;;;2.90;;
6195;SDS011;3131;42.630;23.382;2022-08-01T08:51:31;3.00;;;2.30;;
6195;SDS011;3131;42.630;23.382;2022-08-01T08:53:59;7.00;;;2.70;;
6195;SDS011;3131;42.630;23.382;2022-08-01T08:56:28;5.87;;;2.40;;
6195;SDS011;3131;42.630;23.382;2022-08-01T08:58:57;4.53;;;2.83;;
6195;SDS011;3131;42.630;23.382;2022-08-01T09:01:25;3.63;;;2.37;;
6195;SDS011;3131;42.630;23.382;2022-08-01T09:03:53;2.83;;;2.27;;
6195;SDS011;3131;42.630;23.382;2022-08-01T09:06:21;5.33;;;2.50;;
6195;SDS011;3131;42.630;23.382;2022-08-01T09:08:48;3.90;;;2.70;;
6195;SDS011;3131;42.630;23.382;2022-08-01T09:11:16;3.73;;;2.70;;
6195;SDS011;3131;42.630;23.382;2022-08-01T09:13:45;2.43;;;2.20;;
6195;SDS011;3131;42.630;23.382;2022-08-01T09:16:16;8.47;;;2.07;;
6195;SDS011;3131;42.630;23.382;2022-08-01T09:18:44;3.43;;;2.57;;
6195;SDS011;3131;42.630;23.382;2022-08-01T09:21:14;5.93;;;3.40;;
6195;SDS011;3131;42.630;23.382;2022-08-01T09:23:43;3.90;;;2.40;;
6195;SDS011;3131;42.630;23.382;2022-08-01T09:26:11;4.70;;;2.67;;
6195;SDS011;3131;42.630;23.382;2022-08-01T09:28:39;5.67;;;2.60;;
6195;SDS011;3131;42.630;23.382;2022-08-01T09:31:08;5.33;;;2.90;;
6195;SDS011;3131;42.630;23.382;2022-08-01T09:33:47;5.00;;;2.37;;
6195;SDS011;3131;42.630;23.382;2022-08-01T09:36:15;2.60;;;1.93;;
6195;SDS011;3131;42.630;23.382;2022-08-01T09:38:42;2.27;;;1.90;;
6195;SDS011;3131;42.630;23.382;2022-08-01T09:41:10;3.53;;;2.50;;
6195;SDS011;3131;42.630;23.382;2022-08-01T09:43:38;4.83;;;2.10;;
6195;SDS011;3131;42.630;23.382;2022-08-01T09:46:08;6.17;;;3.20;;
6195;SDS011;3131;42.630;23.382;2022-08-01T09:48:35;3.13;;;2.13;;
6195;SDS011;3131;42.630;23.382;2022-08-01T09:51:04;7.00;;;2.80;;
6195;SDS011;3131;42.630;23.382;2022-08-01T09:53:40;6.30;;;2.90;;
6195;SDS011;3131;42.630;23.382;2022-08-01T09:56:11;4.03;;;2.63;;
6195;SDS011;3131;42.630;23.382;2022-08-01T09:58:55;2.60;;;2.30;;
6195;SDS011;3131;42.630;23.382;2022-08-01T10:01:23;3.60;;;2.40;;
6195;SDS011;3131;42.630;23.382;2022-08-01T10:04:04;3.03;;;2.67;;
6195;SDS011;3131;42.630;23.382;2022-08-01T10:06:32;3.03;;;2.10;;
6195;SDS011;3131;42.630;23.382;2022-08-01T10:08:59;3.27;;;2.77;;
6195;SDS011;3131;42.630;23.382;2022-08-01T10:11:27;3.97;;;2.17;;
6195;SDS011;3131;42.630;23.382;2022-08-01T10:13:55;2.40;;;2.00;;
6195;SDS011;3131;42.630;23.382;2022-08-01T10:16:24;2.60;;;2.40;;
6195;SDS011;3131;42.630;23.382;2022-08-01T10:18:52;3.50;;;2.37;;
6195;SDS011;3131;42.630;23.382;2022-08-01T10:21:21;4.37;;;2.60;;
6195;SDS011;3131;42.630;23.382;2022-08-01T10:23:52;2.40;;;2.20;;
6195;SDS011;3131;42.630;23.382;2022-08-01T10:26:20;3.10;;;2.67;;
6195;SDS011;3131;42.630;23.382;2022-08-01T10:28:49;4.77;;;2.70;;
6195;SDS011;3131;42.630;23.382;2022-08-01T10:31:17;2.77;;;1.93;;
6195;SDS011;3131;42.630;23.382;2022-08-01T10:33:45;5.00;;;2.50;;
6195;SDS011;3131;42.630;23.382;2022-08-01T10:36:13;4.77;;;2.50;;
6195;SDS011;3131;42.630;23.382;2022-08-01T10:38:40;6.90;;;2.47;;
6195;SDS011;3131;42.630;23.382;2022-08-01T10:41:08;4.37;;;2.33;;
6195;SDS011;3131;42.630;23.382;2022-08-01T10:43:36;3.93;;;2.50;;
6195;SDS011;3131;42.630;23.382;2022-08-01T10:46:04;3.53;;;2.50;;
6195;SDS011;3131;42.630;23.382;2022-08-01T10:48:33;4.67;;;2.20;;
6195;SDS011;3131;42.630;23.382;2022-08-01T10:51:01;3.40;;;2.40;;
6195;SDS011;3131;42.630;23.382;2022-08-01T10:53:29;2.43;;;2.23;;
6195;SDS011;3131;42.630;23.382;2022-08-01T10:56:01;4.03;;;2.73;;
6195;SDS011;3131;42.630;23.382;2022-08-01T10:58:30;2.77;;;2.07;;
6195;SDS011;3131;42.630;23.382;2022-08-01T11:09:38;3.97;;;2.30;;
6195;SDS011;3131;42.630;23.382;2022-08-01T11:12:01;11.27;;;2.73;;
6195;SDS011;3131;42.630;23.382;2022-08-01T11:14:32;2.00;;;1.80;;
6195;SDS011;3131;42.630;23.382;2022-08-01T11:26:06;4.20;;;2.47;;
6195;SDS011;3131;42.630;23.382;2022-08-01T11:28:06;2.07;;;1.90;;
6195;SDS011;3131;42.630;23.382;2022-08-01T11:30:36;12.27;;;2.80;;
6195;SDS011;3131;42.630;23.382;2022-08-01T11:33:03;3.60;;;2.30;;
6195;SDS011;3131;42.630;23.382;2022-08-01T11:35:32;8.93;;;2.20;;
6195;SDS011;3131;42.630;23.382;2022-08-01T11:38:21;3.10;;;1.90;;
6195;SDS011;3131;42.630;23.382;2022-08-01T11:40:46;2.87;;;2.07;;
6195;SDS011;3131;42.630;23.382;2022-08-01T11:43:17;3.13;;;2.23;;
6195;SDS011;3131;42.630;23.382;2022-08-01T11:45:48;6.37;;;2.20;;
6195;SDS011;3131;42.630;23.382;2022-08-01T11:48:19;4.17;;;2.17;;
6195;SDS011;3131;42.630;23.382;2022-08-01T11:50:47;2.43;;;2.10;;
6195;SDS011;3131;42.630;23.382;2022-08-01T11:53:14;4.17;;;2.37;;
6195;SDS011;3131;42.630;23.382;2022-08-01T11:55:44;4.60;;;2.10;;
6195;SDS011;3131;42.630;23.382;2022-08-01T11:58:12;5.03;;;2.00;;
6195;SDS011;3131;42.630;23.382;2022-08-01T12:00:40;2.83;;;2.10;;
6195;SDS011;3131;42.630;23.382;2022-08-01T12:03:09;2.67;;;2.10;;
6195;SDS011;3131;42.630;23.382;2022-08-01T12:05:37;2.17;;;1.97;;
6195;SDS011;3131;42.630;23.382;2022-08-01T12:08:05;3.07;;;1.87;;
6195;SDS011;3131;42.630;23.382;2022-08-01T12:10:33;7.17;;;2.33;;
6195;SDS011;3131;42.630;23.382;2022-08-01T12:13:04;2.87;;;2.53;;
6195;SDS011;3131;42.630;23.382;2022-08-01T12:15:33;2.40;;;2.13;;
6195;SDS011;3131;42.630;23.382;2022-08-01T12:18:01;2.60;;;2.40;;
6195;SDS011;3131;42.630;23.382;2022-08-01T12:20:30;3.10;;;2.40;;
6195;SDS011;3131;42.630;23.382;2022-08-01T12:22:58;4.47;;;2.42;;
6195;SDS011;3131;42.630;23.382;2022-08-01T12:25:26;5.58;;;2.55;;
6195;SDS011;3131;42.630;23.382;2022-08-01T12:27:53;3.35;;;2.20;;
6195;SDS011;3131;42.630;23.382;2022-08-01T12:30:23;3.10;;;2.20;;
6195;SDS011;3131;42.630;23.382;2022-08-01T12:32:51;5.17;;;2.07;;
6195;SDS011;3131;42.630;23.382;2022-08-01T12:35:19;2.40;;;2.20;;
6195;SDS011;3131;42.630;23.382;2022-08-01T12:37:49;2.37;;;2.10;;
6195;SDS011;3131;42.630;23.382;2022-08-01T12:40:17;6.50;;;2.27;;
6195;SDS011;3131;42.630;23.382;2022-08-01T12:42:46;10.15;;;3.98;;
6195;SDS011;3131;42.630;23.382;2022-08-01T12:45:14;5.42;;;2.35;;
6195;SDS011;3131;42.630;23.382;2022-08-01T12:47:42;4.92;;;2.42;;
6195;SDS011;3131;42.630;23.382;2022-08-01T12:50:12;5.42;;;2.20;;
6195;SDS011;3131;42.630;23.382;2022-08-01T12:52:40;2.45;;;2.25;;
6195;SDS011;3131;42.630;23.382;2022-08-01T12:55:08;2.30;;;2.10;;
6195;SDS011;3131;42.630;23.382;2022-08-01T12:57:37;2.17;;;1.98;;
6195;SDS011;3131;42.630;23.382;2022-08-01T13:00:06;3.30;;;2.43;;
6195;SDS011;3131;42.630;23.382;2022-08-01T13:02:34;8.77;;;2.50;;
6195;SDS011;3131;42.630;23.382;2022-08-01T13:05:02;2.50;;;2.30;;
6195;SDS011;3131;42.630;23.382;2022-08-01T13:07:41;6.13;;;2.20;;
6195;SDS011;3131;42.630;23.382;2022-08-01T13:10:09;5.27;;;2.40;;
6195;SDS011;3131;42.630;23.382;2022-08-01T13:12:37;2.55;;;1.98;;
6195;SDS011;3131;42.630;23.382;2022-08-01T13:15:22;2.70;;;2.20;;
6195;SDS011;3131;42.630;23.382;2022-08-01T13:17:50;2.67;;;2.40;;
6195;SDS011;3131;42.630;23.382;2022-08-01T13:20:27;2.27;;;2.05;;
6195;SDS011;3131;42.630;23.382;2022-08-01T13:22:55;4.58;;;2.10;;
6195;SDS011;3131;42.630;23.382;2022-08-01T13:25:24;5.53;;;2.20;;
6195;SDS011;3131;42.630;23.382;2022-08-01T13:30:39;8.83;;;2.62;;
6195;SDS011;3131;42.630;23.382;2022-08-01T13:33:08;3.45;;;2.35;;
6195;SDS011;3131;42.630;23.382;2022-08-01T13:35:36;2.90;;;2.30;;
6195;SDS011;3131;42.630;23.382;2022-08-01T13:38:03;3.55;;;2.15;;
6195;SDS011;3131;42.630;23.382;2022-08-01T13:40:31;4.33;;;2.53;;
6195;SDS011;3131;42.630;23.382;2022-08-01T13:42:58;2.72;;;2.08;;
6195;SDS011;3131;42.630;23.382;2022-08-01T13:45:25;2.47;;;2.27;;
6195;SDS011;3131;42.630;23.382;2022-08-01T13:47:53;3.70;;;2.30;;
6195;SDS011;3131;42.630;23.382;2022-08-01T13:50:21;2.95;;;2.37;;
6195;SDS011;3131;42.630;23.382;2022-08-01T13:52:49;3.22;;;2.35;;
6195;SDS011;3131;42.630;23.382;2022-08-01T13:55:16;4.22;;;2.40;;
6195;SDS011;3131;42.630;23.382;2022-08-01T13:57:44;6.08;;;2.30;;
6195;SDS011;3131;42.630;23.382;2022-08-01T14:00:12;3.67;;;1.85;;
6195;SDS011;3131;42.630;23.382;2022-08-01T14:02:40;4.10;;;2.22;;
6195;SDS011;3131;42.630;23.382;2022-08-01T14:05:08;5.70;;;2.58;;
6195;SDS011;3131;42.630;23.382;2022-08-01T14:07:35;2.87;;;2.27;;
6195;SDS011;3131;42.630;23.382;2022-08-01T14:10:03;4.17;;;2.00;;
6195;SDS011;3131;42.630;23.382;2022-08-01T14:12:31;4.08;;;2.08;;
6195;SDS011;3131;42.630;23.382;2022-08-01T14:14:59;3.17;;;2.10;;
6195;SDS011;3131;42.630;23.382;2022-08-01T14:17:27;2.50;;;2.20;;
6195;SDS011;3131;42.630;23.382;2022-08-01T14:19:54;6.47;;;2.22;;
6195;SDS011;3131;42.630;23.382;2022-08-01T14:22:24;4.17;;;2.15;;
6195;SDS011;3131;42.630;23.382;2022-08-01T14:24:52;3.12;;;1.80;;
6195;SDS011;3131;42.630;23.382;2022-08-01T14:27:19;3.58;;;2.12;;
6195;SDS011;3131;42.630;23.382;2022-08-01T14:29:46;3.73;;;2.60;;
6195;SDS011;3131;42.630;23.382;2022-08-01T14:32:14;3.80;;;2.00;;
6195;SDS011;3131;42.630;23.382;2022-08-01T14:34:41;4.53;;;2.27;;
6195;SDS011;3131;42.630;23.382;2022-08-01T14:37:09;4.00;;;2.10;;
6195;SDS011;3131;42.630;23.382;2022-08-01T14:39:36;2.15;;;1.95;;
6195;SDS011;3131;42.630;23.382;2022-08-01T14:42:04;2.10;;;1.95;;
6195;SDS011;3131;42.630;23.382;2022-08-01T14:44:32;5.30;;;1.98;;
6195;SDS011;3131;42.630;23.382;2022-08-01T14:46:59;3.85;;;2.35;;
6195;SDS011;3131;42.630;23.382;2022-08-01T14:49:27;3.70;;;2.17;;
6195;SDS011;3131;42.630;23.382;2022-08-01T14:51:55;5.60;;;2.10;;
6195;SDS011;3131;42.630;23.382;2022-08-01T14:54:22;1.87;;;1.77;;
6195;SDS011;3131;42.630;23.382;2022-08-01T14:56:50;6.05;;;2.05;;
6195;SDS011;3131;42.630;23.382;2022-08-01T14:59:19;2.55;;;1.82;;
6195;SDS011;3131;42.630;23.382;2022-08-01T15:01:46;3.70;;;2.00;;
6195;SDS011;3131;42.630;23.382;2022-08-01T15:04:14;4.50;;;2.93;;
6195;SDS011;3131;42.630;23.382;2022-08-01T15:06:43;6.80;;;2.10;;
6195;SDS011;3131;42.630;23.382;2022-08-01T15:09:10;7.20;;;2.20;;
6195;SDS011;3131;42.630;23.382;2022-08-01T15:11:38;2.33;;;2.12;;
6195;SDS011;3131;42.630;23.382;2022-08-01T15:14:05;2.57;;;2.27;;
6195;SDS011;3131;42.630;23.382;2022-08-01T15:16:50;2.60;;;1.90;;
6195;SDS011;3131;42.630;23.382;2022-08-01T15:19:18;4.97;;;2.20;;
6195;SDS011;3131;42.630;23.382;2022-08-01T15:21:45;2.77;;;2.40;;
6195;SDS011;3131;42.630;23.382;2022-08-01T15:24:13;5.37;;;2.23;;
6195;SDS011;3131;42.630;23.382;2022-08-01T15:26:41;4.17;;;2.07;;
6195;SDS011;3131;42.630;23.382;2022-08-01T15:29:08;2.07;;;1.87;;
6195;SDS011;3131;42.630;23.382;2022-08-01T15:31:36;3.03;;;2.03;;
6195;SDS011;3131;42.630;23.382;2022-08-01T15:34:03;5.77;;;2.40;;